Time;durP1;ratioP1;P1;durP2;ratioP2;P2;SDS_P1;SDS_P2;PMS_P1;PMS_P2;Temp;Humidity;BMP_temperature;BMP_pressure;BME280_temperature;BME280_humidity;BME280_pressure;Samples;Min_cycle;Max_cycle;Signal;HPM_P1;HPM_P2
2022/06/26 00:02:20;;;;;;;1.50;0.90;;;20.20;98.20;;;;;;4996449;28;20564;-80
2022/06/26 00:04:47;;;;;;;1.50;0.90;;;20.20;98.20;;;;;;5008776;28;20468;-81
2022/06/26 00:07:15;;;;;;;1.47;0.90;;;20.20;98.20;;;;;;4985402;28;20584;-81
2022/06/26 00:09:43;;;;;;;1.50;0.90;;;20.10;98.20;;;;;;5010139;28;20468;-80
2022/06/26 00:12:10;;;;;;;1.50;0.90;;;20.00;98.20;;;;;;5010523;28;20951;-81
2022/06/26 00:14:37;;;;;;;1.60;1.20;;;20.00;98.20;;;;;;5003512;28;20473;-81
2022/06/26 00:17:04;;;;;;;1.50;1.00;;;19.90;98.20;;;;;;5004904;28;20556;-81
2022/06/26 00:19:34;;;;;;;1.50;0.90;;;19.80;98.20;;;;;;4996418;28;20572;-81
2022/06/26 00:22:05;;;;;;;1.50;0.90;;;19.80;98.20;;;;;;4992498;28;20516;-81
2022/06/26 00:24:32;;;;;;;1.50;0.90;;;19.90;98.20;;;;;;4997540;28;20484;-81
2022/06/26 00:26:59;;;;;;;1.50;0.97;;;19.90;98.20;;;;;;5008423;28;20512;-81
2022/06/26 00:29:26;;;;;;;1.50;0.90;;;20.00;98.20;;;;;;5011329;28;20533;-81
2022/06/26 00:31:53;;;;;;;1.50;0.90;;;20.00;98.20;;;;;;5001582;28;20587;-81
2022/06/26 00:34:20;;;;;;;1.50;1.00;;;20.00;98.20;;;;;;5009853;28;20460;-80
2022/06/26 00:36:48;;;;;;;1.50;0.90;;;20.00;98.20;;;;;;5012924;28;20515;-81
2022/06/26 00:39:15;;;;;;;1.50;0.90;;;19.90;98.20;;;;;;5015483;28;20461;-81
2022/06/26 00:41:42;;;;;;;1.50;0.90;;;19.90;98.20;;;;;;4998831;28;20504;-81
2022/06/26 00:44:16;;;;;;;1.50;0.90;;;19.80;98.20;;;;;;5013251;28;20465;-81
2022/06/26 00:46:44;;;;;;;1.50;0.90;;;19.70;98.20;;;;;;5003161;28;20491;-81
2022/06/26 00:49:12;;;;;;;1.50;0.90;;;19.70;98.20;;;;;;5022642;28;20488;-81
2022/06/26 00:51:42;;;;;;;1.50;0.90;;;19.60;98.20;;;;;;5016353;28;20539;-81
2022/06/26 00:54:11;;;;;;;1.50;0.90;;;19.60;98.20;;;;;;5018159;28;20488;-81
2022/06/26 00:56:39;;;;;;;1.50;0.90;;;19.60;98.20;;;;;;5022438;28;20948;-80
2022/06/26 00:59:06;;;;;;;1.50;0.90;;;19.60;98.20;;;;;;5020063;28;20502;-81
2022/06/26 01:01:34;;;;;;;1.50;0.90;;;19.60;98.20;;;;;;4999214;28;20520;-80
2022/06/26 01:04:01;;;;;;;1.50;0.90;;;19.60;98.20;;;;;;4996456;28;20472;-80
2022/06/26 01:06:29;;;;;;;1.50;0.90;;;19.60;98.20;;;;;;5001583;28;20859;-81
2022/06/26 01:08:56;;;;;;;1.50;0.90;;;19.60;98.20;;;;;;5002187;28;20481;-80
2022/06/26 01:11:25;;;;;;;1.50;1.00;;;19.60;98.20;;;;;;4996939;28;20480;-81
2022/06/26 01:13:54;;;;;;;1.50;0.90;;;19.50;98.20;;;;;;5000414;28;20525;-81
2022/06/26 01:16:23;;;;;;;1.50;0.97;;;19.50;98.20;;;;;;4996729;28;20934;-81
2022/06/26 01:18:52;;;;;;;1.50;0.90;;;19.50;98.20;;;;;;5007982;28;20519;-81
2022/06/26 01:21:20;;;;;;;1.50;0.97;;;19.50;98.20;;;;;;5012614;28;20480;-81
2022/06/26 01:23:50;;;;;;;1.50;0.90;;;19.50;98.20;;;;;;5003031;28;20551;-81
2022/06/26 01:26:18;;;;;;;1.50;0.90;;;19.50;98.20;;;;;;5006137;28;20465;-80
2022/06/26 01:28:45;;;;;;;1.50;0.90;;;19.40;98.20;;;;;;4994273;28;20579;-81
2022/06/26 01:31:12;;;;;;;1.50;0.90;;;19.30;98.20;;;;;;5003010;28;20536;-80
2022/06/26 01:33:39;;;;;;;1.50;0.90;;;19.30;98.20;;;;;;5007542;28;20483;-80
2022/06/26 01:36:06;;;;;;;1.50;0.90;;;19.10;98.20;;;;;;4991748;28;20477;-81
2022/06/26 01:38:33;;;;;;;1.50;0.90;;;19.10;98.20;;;;;;5001207;28;20564;-81
2022/06/26 01:41:02;;;;;;;1.50;0.90;;;19.00;98.20;;;;;;5000361;28;20469;-81
2022/06/26 01:43:31;;;;;;;1.50;0.93;;;19.00;98.20;;;;;;5014074;28;20469;-81
2022/06/26 01:46:00;;;;;;;1.50;1.00;;;19.00;98.20;;;;;;4999151;28;20465;-80
2022/06/26 01:48:29;;;;;;;1.50;0.90;;;19.00;98.20;;;;;;5002420;28;20489;-81
2022/06/26 01:50:58;;;;;;;1.50;0.90;;;19.00;98.20;;;;;;4994139;28;20470;-81
2022/06/26 01:53:25;;;;;;;1.50;0.90;;;19.00;98.20;;;;;;4992811;28;20493;-81
2022/06/26 01:55:53;;;;;;;1.50;1.00;;;19.00;98.20;;;;;;4980605;28;20468;-82
2022/06/26 01:58:21;;;;;;;1.50;0.90;;;18.90;98.20;;;;;;4998986;28;20881;-81
2022/06/26 02:00:50;;;;;;;1.50;0.90;;;18.90;98.20;;;;;;5011331;28;20848;-82
2022/06/26 02:03:18;;;;;;;1.50;0.90;;;18.90;98.20;;;;;;5009063;28;20464;-81
2022/06/26 02:05:46;;;;;;;1.50;0.90;;;18.90;98.20;;;;;;5009776;28;20452;-81
2022/06/26 02:08:13;;;;;;;1.50;1.00;;;18.80;98.20;;;;;;5011465;28;20496;-81
2022/06/26 02:13:39;;;;;;;1.50;0.90;;;18.70;98.20;;;;;;4986712;28;21110;-81
2022/06/26 02:16:10;;;;;;;1.50;1.00;;;18.60;98.20;;;;;;5007986;28;20478;-81
2022/06/26 02:18:42;;;;;;;1.50;0.90;;;18.50;98.20;;;;;;5010603;28;20872;-81
2022/06/26 02:21:13;;;;;;;1.50;0.90;;;18.50;98.20;;;;;;4999596;28;20472;-81
2022/06/26 02:23:40;;;;;;;1.50;1.00;;;18.50;98.20;;;;;;5003302;28;20543;-80
2022/06/26 02:26:08;;;;;;;1.50;0.90;;;18.50;98.20;;;;;;5005531;28;20472;-81
2022/06/26 02:28:37;;;;;;;1.50;0.90;;;18.50;98.20;;;;;;5001366;28;20519;-81
2022/06/26 02:31:04;;;;;;;1.50;1.00;;;18.40;98.20;;;;;;4997538;28;20552;-82
2022/06/26 02:33:32;;;;;;;1.50;0.90;;;18.40;98.20;;;;;;5007598;28;20548;-81
2022/06/26 02:36:01;;;;;;;1.50;0.90;;;18.50;98.20;;;;;;4999232;28;20476;-81
2022/06/26 02:38:28;;;;;;;1.50;1.00;;;18.50;98.20;;;;;;5009006;28;20500;-82
2022/06/26 02:40:55;;;;;;;1.50;0.90;;;18.50;98.20;;;;;;4999583;28;20560;-82
2022/06/26 02:43:24;;;;;;;1.47;0.90;;;18.60;98.20;;;;;;4995920;28;20535;-81
2022/06/26 02:45:53;;;;;;;1.50;0.90;;;18.60;98.20;;;;;;5012095;28;20488;-81
2022/06/26 02:48:20;;;;;;;1.50;0.90;;;18.70;98.20;;;;;;4992696;28;21088;-81
2022/06/26 02:50:47;;;;;;;1.50;0.90;;;18.70;98.20;;;;;;4992527;28;21130;-82
2022/06/26 02:53:15;;;;;;;1.50;1.00;;;18.70;98.20;;;;;;4991364;28;20477;-82
2022/06/26 02:55:41;;;;;;;1.50;0.93;;;18.70;98.20;;;;;;4992755;28;20973;-82
2022/06/26 02:58:08;;;;;;;1.50;0.90;;;18.70;98.20;;;;;;4995024;28;20477;-80
2022/06/26 03:00:35;;;;;;;1.50;0.90;;;18.70;98.20;;;;;;4996567;28;20537;-80
2022/06/26 03:03:04;;;;;;;1.50;0.90;;;18.70;98.20;;;;;;4993213;28;20500;-80
2022/06/26 03:05:32;;;;;;;1.50;1.00;;;18.70;98.20;;;;;;4991939;28;20465;-79
2022/06/26 03:07:59;;;;;;;1.50;0.90;;;18.70;98.20;;;;;;4991703;28;20567;-80
2022/06/26 03:10:27;;;;;;;1.90;1.30;;;18.70;98.20;;;;;;4999218;28;20461;-80
2022/06/26 03:12:57;;;;;;;1.50;1.00;;;18.70;98.20;;;;;;5001963;28;20552;-80
2022/06/26 03:15:28;;;;;;;1.47;0.90;;;18.70;98.20;;;;;;5004481;28;20945;-81
2022/06/26 03:17:57;;;;;;;1.50;1.00;;;18.80;98.20;;;;;;4991257;28;20496;-80
2022/06/26 03:26:27;;;;;;;1.70;1.27;;;18.90;98.20;;;;;;4964748;28;21028;-82
2022/06/26 03:28:54;;;;;;;1.50;1.00;;;18.90;98.20;;;;;;4977693;28;20489;-82
2022/06/26 03:31:21;;;;;;;1.50;1.00;;;18.90;98.20;;;;;;4963380;28;20463;-82
2022/06/26 03:33:48;;;;;;;1.50;1.00;;;18.90;98.20;;;;;;4960592;28;20534;-82
2022/06/26 03:36:15;;;;;;;1.50;1.00;;;18.90;98.20;;;;;;4965080;28;20463;-82
2022/06/26 03:38:51;;;;;;;1.50;0.90;;;18.90;98.20;;;;;;4958123;28;20620;-82
2022/06/26 03:41:30;;;;;;;1.50;0.90;;;18.80;98.20;;;;;;4958132;29;20853;-82
2022/06/26 03:44:01;;;;;;;1.50;0.90;;;18.80;98.20;;;;;;4957462;28;20531;-82
2022/06/26 03:46:29;;;;;;;1.50;0.90;;;18.80;98.20;;;;;;4957223;29;20502;-83
2022/06/26 03:48:56;;;;;;;1.50;0.90;;;18.80;98.20;;;;;;4961807;28;20538;-82
2022/06/26 03:51:25;;;;;;;1.50;0.90;;;18.90;98.20;;;;;;4952121;28;20485;-82
2022/06/26 03:53:59;;;;;;;1.50;0.90;;;18.90;98.20;;;;;;4971969;28;20461;-83
2022/06/26 03:56:32;;;;;;;1.50;0.90;;;19.00;98.20;;;;;;4948003;28;20741;-82
2022/06/26 03:59:06;;;;;;;1.47;1.00;;;18.90;98.20;;;;;;4969205;28;20458;-82
2022/06/26 04:01:34;;;;;;;1.47;0.90;;;18.90;98.20;;;;;;4956687;28;20459;-83
2022/06/26 04:04:01;;;;;;;1.47;0.90;;;18.90;98.20;;;;;;4966453;28;20463;-82
2022/06/26 04:06:31;;;;;;;1.50;0.97;;;18.90;98.20;;;;;;4954541;28;20516;-83
2022/06/26 04:08:58;;;;;;;1.50;0.90;;;18.90;98.20;;;;;;4967943;28;20916;-82
2022/06/26 04:11:26;;;;;;;1.50;0.90;;;18.90;98.20;;;;;;4959604;29;20485;-83
2022/06/26 04:14:04;;;;;;;1.50;0.90;;;18.90;98.20;;;;;;4960352;29;20455;-83
2022/06/26 04:16:31;;;;;;;1.50;1.00;;;18.90;98.20;;;;;;4961291;28;20473;-83
2022/06/26 04:18:58;;;;;;;1.50;0.90;;;18.80;98.20;;;;;;4952786;28;20836;-82
2022/06/26 04:21:25;;;;;;;1.43;0.90;;;18.80;98.20;;;;;;4947181;28;20466;-82
2022/06/26 04:23:52;;;;;;;1.50;1.00;;;18.80;98.20;;;;;;4960755;28;20860;-82
2022/06/26 04:26:19;;;;;;;1.50;0.90;;;18.90;98.20;;;;;;4952380;28;20840;-83
2022/06/26 04:28:56;;;;;;;;;;;;;;;;;;;;;
2022/06/26 04:31:37;;;;;;;1.50;0.90;;;18.90;98.20;;;;;;4955044;28;20475;-82
2022/06/26 04:34:07;;;;;;;1.50;0.90;;;19.00;98.20;;;;;;4958044;29;20494;-82
2022/06/26 04:39:53;;;;;;;1.50;0.90;;;19.00;98.20;;;;;;4942323;29;20470;-83
2022/06/26 04:42:20;;;;;;;1.47;0.90;;;19.10;98.20;;;;;;4951323;29;20467;-83
2022/06/26 04:44:47;;;;;;;1.70;1.20;;;19.10;98.20;;;;;;4957426;28;20502;-82
2022/06/26 04:47:25;;;;;;;1.50;1.00;;;19.10;98.20;;;;;;4954738;28;20506;-83
2022/06/26 04:49:52;;;;;;;1.50;0.90;;;19.10;98.20;;;;;;4953089;29;20501;-83
2022/06/26 04:52:30;;;;;;;1.50;0.90;;;19.00;98.20;;;;;;4958441;28;20572;-83
2022/06/26 04:55:05;;;;;;;1.43;0.90;;;19.00;98.20;;;;;;4958854;28;20908;-83
2022/06/26 04:57:32;;;;;;;1.50;0.90;;;19.00;98.20;;;;;;4960228;28;20509;-83
2022/06/26 05:00:04;;;;;;;1.43;0.90;;;19.00;98.20;;;;;;4961104;28;20478;-82
2022/06/26 05:02:47;;;;;;;1.50;0.90;;;19.00;98.20;;;;;;4958753;28;20483;-83
2022/06/26 05:05:14;;;;;;;1.50;0.90;;;18.90;98.20;;;;;;4957268;28;20482;-83
2022/06/26 05:07:41;;;;;;;1.47;0.90;;;19.00;98.20;;;;;;4956287;28;20534;-83
2022/06/26 05:10:16;;;;;;;1.50;0.90;;;19.20;98.20;;;;;;4957964;29;20533;-83
2022/06/26 05:12:43;;;;;;;1.50;0.90;;;19.40;98.20;;;;;;4963915;28;20588;-83
2022/06/26 05:15:10;;;;;;;1.50;0.90;;;19.60;98.20;;;;;;4958615;28;20971;-83
2022/06/26 05:17:37;;;;;;;1.50;0.90;;;19.60;98.20;;;;;;4959437;28;20558;-84
2022/06/26 05:20:09;;;;;;;1.50;0.90;;;19.70;98.20;;;;;;4963813;28;20497;-83
2022/06/26 05:22:36;;;;;;;1.50;0.90;;;19.70;98.20;;;;;;4961031;28;20834;-83
2022/06/26 05:25:03;;;;;;;1.50;0.90;;;19.70;98.20;;;;;;4958200;29;20475;-83
2022/06/26 05:27:37;;;;;;;1.50;0.90;;;19.70;98.20;;;;;;4956505;28;20502;-83
2022/06/26 05:30:05;;;;;;;1.50;0.90;;;19.70;98.20;;;;;;4975346;23;20530;-81
2022/06/26 05:32:32;;;;;;;1.50;0.90;;;19.80;98.20;;;;;;4968801;28;20481;-81
2022/06/26 05:34:59;;;;;;;1.50;0.90;;;19.80;98.20;;;;;;4964823;28;20463;-77
2022/06/26 05:37:27;;;;;;;1.50;0.90;;;19.80;98.20;;;;;;4948794;28;20467;-78
2022/06/26 05:39:54;;;;;;;1.60;1.40;;;19.80;98.20;;;;;;4967797;28;21002;-80
2022/06/26 05:42:20;;;;;;;1.50;0.90;;;19.80;98.20;;;;;;4987533;28;20464;-80
2022/06/26 05:44:47;;;;;;;1.50;0.90;;;19.80;98.20;;;;;;4976778;28;20557;-78
2022/06/26 05:47:14;;;;;;;1.50;0.90;;;19.90;98.20;;;;;;4980953;28;20481;-80
2022/06/26 05:49:41;;;;;;;1.50;0.90;;;19.90;98.20;;;;;;4983207;28;20496;-80
2022/06/26 05:52:08;;;;;;;1.50;0.90;;;19.90;98.20;;;;;;4986081;28;20461;-80
2022/06/26 05:54:36;;;;;;;1.80;1.43;;;19.90;98.20;;;;;;4975127;28;20465;-79
2022/06/26 05:57:03;;;;;;;1.50;0.90;;;19.90;98.20;;;;;;4975372;28;20485;-79
2022/06/26 05:59:30;;;;;;;1.50;0.90;;;19.90;98.20;;;;;;4984206;28;20465;-79
2022/06/26 06:01:57;;;;;;;1.50;0.97;;;20.00;98.20;;;;;;4979683;28;20458;-80
2022/06/26 06:04:23;;;;;;;1.50;0.93;;;20.00;98.20;;;;;;4999072;28;20476;-80
2022/06/26 06:06:50;;;;;;;1.50;0.90;;;20.00;98.20;;;;;;4979305;28;20474;-80
2022/06/26 06:09:17;;;;;;;1.50;1.00;;;20.10;98.20;;;;;;4980376;28;20490;-79
2022/06/26 06:11:45;;;;;;;1.50;0.90;;;20.10;98.20;;;;;;4975587;28;20500;-80
2022/06/26 06:14:12;;;;;;;1.50;0.90;;;20.10;98.20;;;;;;4990378;28;20472;-80
2022/06/26 06:16:39;;;;;;;1.50;0.90;;;20.20;98.20;;;;;;4982406;28;21101;-79
2022/06/26 06:19:06;;;;;;;1.50;0.90;;;20.20;98.20;;;;;;4978463;28;20864;-81
2022/06/26 06:21:33;;;;;;;1.50;0.97;;;20.30;98.20;;;;;;4970796;28;20521;-81
2022/06/26 06:24:00;;;;;;;1.50;0.90;;;20.50;98.20;;;;;;4981388;28;20462;-79
2022/06/26 06:26:27;;;;;;;1.50;0.90;;;20.60;98.20;;;;;;4973668;28;20466;-79
2022/06/26 06:28:55;;;;;;;1.50;0.90;;;20.80;98.20;;;;;;4979477;28;20530;-79
2022/06/26 06:31:22;;;;;;;1.50;0.90;;;21.10;98.20;;;;;;4975516;28;20540;-80
2022/06/26 06:33:49;;;;;;;1.50;0.90;;;21.30;98.20;;;;;;4987431;28;20465;-80
2022/06/26 06:36:16;;;;;;;1.50;0.90;;;21.50;98.20;;;;;;4965389;28;20643;-77
2022/06/26 06:38:43;;;;;;;1.50;0.90;;;21.70;98.20;;;;;;4976302;28;20461;-80
2022/06/26 06:41:10;;;;;;;1.50;0.90;;;21.90;98.20;;;;;;4980729;28;20973;-80
2022/06/26 06:43:37;;;;;;;1.50;0.90;;;21.90;96.90;;;;;;4996043;28;20473;-81
2022/06/26 06:46:05;;;;;;;1.50;0.90;;;22.10;97.90;;;;;;4992189;28;20539;-79
2022/06/26 06:48:32;;;;;;;1.57;1.00;;;22.40;96.70;;;;;;4971135;28;20470;-80
2022/06/26 06:50:59;;;;;;;1.50;0.90;;;22.60;96.20;;;;;;4966061;28;20566;-80
2022/06/26 06:53:25;;;;;;;1.50;0.90;;;22.90;95.30;;;;;;4985649;28;20668;-80
2022/06/26 06:55:52;;;;;;;1.50;0.90;;;23.10;93.90;;;;;;4975156;28;20560;-81
2022/06/26 06:58:19;;;;;;;1.50;0.90;;;23.30;93.00;;;;;;4973225;28;20475;-81
2022/06/26 07:00:46;;;;;;;1.50;0.90;;;23.40;92.20;;;;;;4966711;28;20485;-80
2022/06/26 07:03:14;;;;;;;1.50;0.90;;;23.50;92.40;;;;;;5004840;28;20473;-80
2022/06/26 07:05:41;;;;;;;1.50;0.90;;;23.70;92.20;;;;;;4978259;28;20462;-79
2022/06/26 07:08:08;;;;;;;1.50;0.90;;;23.90;90.70;;;;;;4990825;28;20465;-79
2022/06/26 07:10:35;;;;;;;1.50;0.87;;;24.00;88.70;;;;;;4974752;28;20494;-78
2022/06/26 07:13:02;;;;;;;1.50;0.90;;;23.90;89.80;;;;;;4977657;28;20531;-77
2022/06/26 07:15:29;;;;;;;1.50;0.90;;;23.90;89.40;;;;;;4970884;28;20470;-79
2022/06/26 07:17:55;;;;;;;1.50;0.90;;;23.80;89.30;;;;;;4965839;28;20470;-78
2022/06/26 07:20:24;;;;;;;1.50;0.90;;;23.70;88.60;;;;;;4971343;28;20482;-78
2022/06/26 07:22:51;;;;;;;1.50;0.90;;;23.60;88.90;;;;;;4965209;28;20526;-77
2022/06/26 07:25:19;;;;;;;1.50;0.90;;;23.40;90.40;;;;;;4967774;28;20462;-79
2022/06/26 07:27:46;;;;;;;1.50;0.90;;;23.50;90.40;;;;;;4980306;28;20544;-78
2022/06/26 07:30:13;;;;;;;1.50;0.90;;;23.70;88.90;;;;;;4972953;28;20494;-79
2022/06/26 07:32:40;;;;;;;1.50;0.90;;;23.90;88.20;;;;;;4974379;28;20461;-79
2022/06/26 07:35:08;;;;;;;1.50;0.90;;;24.10;88.00;;;;;;4967238;28;20477;-77
2022/06/26 07:37:36;;;;;;;1.50;0.90;;;24.50;87.30;;;;;;4957832;28;20799;-80
2022/06/26 07:40:03;;;;;;;1.50;0.83;;;24.90;85.80;;;;;;4987851;28;20513;-79
2022/06/26 07:42:30;;;;;;;1.50;0.90;;;25.30;85.10;;;;;;4987630;28;20490;-79
2022/06/26 07:44:57;;;;;;;1.50;0.90;;;25.60;83.60;;;;;;4989977;28;20475;-78
2022/06/26 07:47:24;;;;;;;1.50;0.90;;;25.70;83.90;;;;;;4970568;28;20493;-78
2022/06/26 07:49:50;;;;;;;1.50;0.90;;;25.90;83.90;;;;;;4976964;28;20591;-80
2022/06/26 07:52:17;;;;;;;1.50;0.90;;;25.80;82.60;;;;;;4972876;28;20732;-79
2022/06/26 07:54:45;;;;;;;1.50;0.90;;;25.60;83.70;;;;;;4976985;28;20497;-79
2022/06/26 07:57:12;;;;;;;1.50;0.80;;;25.40;82.70;;;;;;4981375;28;20801;-80
2022/06/26 07:59:39;;;;;;;1.47;0.80;;;25.20;83.30;;;;;;4972179;28;20473;-78
2022/06/26 08:02:06;;;;;;;1.50;0.90;;;25.00;84.00;;;;;;4971306;28;20766;-78
2022/06/26 08:04:33;;;;;;;1.47;0.90;;;24.90;85.20;;;;;;4974407;28;20469;-79
2022/06/26 08:07:00;;;;;;;1.50;0.90;;;24.90;84.80;;;;;;4981711;28;20825;-78
2022/06/26 08:09:27;;;;;;;1.47;0.90;;;25.10;84.30;;;;;;4984161;28;20490;-80
2022/06/26 08:11:55;;;;;;;1.50;0.87;;;25.10;82.80;;;;;;4975815;28;20508;-79
2022/06/26 08:14:22;;;;;;;1.50;0.80;;;25.20;84.60;;;;;;4982009;28;20466;-79
2022/06/26 08:16:49;;;;;;;1.47;0.80;;;25.40;83.20;;;;;;4985190;28;20465;-80
2022/06/26 08:19:16;;;;;;;1.40;0.90;;;25.40;82.90;;;;;;4989121;28;20461;-79
2022/06/26 08:24:27;;;;;;;1.40;0.83;;;25.30;83.40;;;;;;4979119;28;20448;-79
2022/06/26 08:26:55;;;;;;;1.43;0.80;;;25.20;83.40;;;;;;4984051;28;20472;-80
2022/06/26 08:29:22;;;;;;;1.47;0.80;;;25.20;83.90;;;;;;4967245;28;20592;-79
2022/06/26 08:31:49;;;;;;;1.50;0.90;;;25.20;83.30;;;;;;4967461;28;21106;-76
2022/06/26 08:34:16;;;;;;;1.47;0.83;;;25.30;83.80;;;;;;4973267;28;20769;-79
2022/06/26 08:36:43;;;;;;;1.50;0.87;;;25.30;83.60;;;;;;4969920;28;20552;-77
2022/06/26 08:39:10;;;;;;;1.47;0.80;;;25.30;82.70;;;;;;4965602;28;20480;-78
2022/06/26 08:41:40;;;;;;;1.40;0.90;;;25.20;82.50;;;;;;4971910;28;21275;-77
2022/06/26 08:44:10;;;;;;;1.50;0.90;;;25.20;83.00;;;;;;4972376;28;20466;-79
2022/06/26 08:46:38;;;;;;;1.50;0.80;;;25.20;82.40;;;;;;4969931;28;20882;-78
2022/06/26 08:49:10;;;;;;;1.50;1.10;;;25.10;83.20;;;;;;4977554;28;20466;-77
2022/06/26 08:51:38;;;;;;;1.87;1.67;;;25.10;82.10;;;;;;4967458;28;20516;-76
2022/06/26 08:54:06;;;;;;;1.50;0.90;;;25.10;82.00;;;;;;4971563;28;20485;-76
2022/06/26 08:56:34;;;;;;;1.40;0.90;;;25.00;81.70;;;;;;4966923;28;20485;-78
2022/06/26 08:59:01;;;;;;;1.40;0.90;;;25.00;82.00;;;;;;4976601;28;20466;-78
2022/06/26 09:01:29;;;;;;;1.50;0.90;;;25.00;82.60;;;;;;4966819;28;20516;-78
2022/06/26 09:03:56;;;;;;;1.47;0.90;;;25.00;82.80;;;;;;4972100;28;20990;-75
2022/06/26 09:06:23;;;;;;;1.43;0.80;;;25.20;82.80;;;;;;4965384;28;20488;-79
2022/06/26 09:08:51;;;;;;;1.50;0.90;;;25.50;80.90;;;;;;4977804;28;20473;-78
2022/06/26 09:11:19;;;;;;;1.50;0.90;;;25.80;80.00;;;;;;4968948;28;20502;-78
2022/06/26 09:13:49;;;;;;;1.50;0.90;;;25.90;79.30;;;;;;4967681;28;20465;-77
2022/06/26 09:16:16;;;;;;;1.40;0.80;;;25.80;78.00;;;;;;4969327;28;20539;-76
2022/06/26 09:18:44;;;;;;;1.50;0.90;;;25.70;80.90;;;;;;4967754;28;20501;-77
2022/06/26 09:21:12;;;;;;;1.50;0.87;;;25.70;80.10;;;;;;4968338;28;20482;-76
2022/06/26 09:23:40;;;;;;;1.47;0.90;;;25.70;79.70;;;;;;4965771;28;20474;-76
2022/06/26 09:26:07;;;;;;;1.47;0.90;;;25.80;80.50;;;;;;4964649;28;20498;-76
2022/06/26 09:28:34;;;;;;;1.50;0.90;;;25.90;79.10;;;;;;4983093;28;20556;-78
2022/06/26 09:31:03;;;;;;;1.47;0.90;;;26.20;79.80;;;;;;4969672;28;20596;-77
2022/06/26 09:33:32;;;;;;;1.50;0.80;;;26.50;80.20;;;;;;4972245;28;20477;-77
2022/06/26 09:36:03;;;;;;;1.50;0.80;;;26.90;77.30;;;;;;4968219;28;21006;-78
2022/06/26 09:38:32;;;;;;;1.50;0.80;;;27.40;77.10;;;;;;4968223;28;20501;-77
2022/06/26 09:41:01;;;;;;;1.50;0.87;;;27.80;74.60;;;;;;4963841;28;20489;-82
2022/06/26 09:43:31;;;;;;;2.43;1.20;;;28.10;76.50;;;;;;4983806;28;20465;-78
2022/06/26 09:45:59;;;;;;;1.50;0.80;;;28.30;74.80;;;;;;4968864;28;20463;-78
2022/06/26 09:48:27;;;;;;;1.50;0.90;;;28.40;71.80;;;;;;4970957;28;20485;-78
2022/06/26 09:50:55;;;;;;;1.50;0.90;;;28.40;71.70;;;;;;4972266;28;21411;-77
2022/06/26 09:53:24;;;;;;;1.50;0.80;;;28.40;72.30;;;;;;4966942;28;21117;-78
2022/06/26 09:55:53;;;;;;;1.50;0.80;;;28.50;73.10;;;;;;4968217;28;20543;-75
2022/06/26 09:58:20;;;;;;;1.43;0.80;;;28.70;71.90;;;;;;4964893;28;21017;-76
2022/06/26 10:06:26;;;;;;;1.43;0.80;;;28.50;71.60;;;;;;4961766;28;20483;-77
2022/06/26 10:08:56;;;;;;;1.50;0.90;;;28.30;72.60;;;;;;4975552;28;20552;-77
2022/06/26 10:11:25;;;;;;;1.50;0.80;;;27.90;72.30;;;;;;4961767;28;20493;-77
2022/06/26 10:13:55;;;;;;;1.50;0.90;;;27.60;72.70;;;;;;4974327;28;21020;-75
2022/06/26 10:16:52;;;;;;;1.47;0.80;;;27.40;76.00;;;;;;4963788;28;20476;-75
2022/06/26 10:19:27;;;;;;;1.50;0.90;;;27.40;74.70;;;;;;4933254;28;20469;-75
2022/06/26 10:21:56;;;;;;;1.47;0.90;;;27.40;74.90;;;;;;4965544;28;21110;-76
2022/06/26 10:24:24;;;;;;;1.50;0.80;;;27.30;75.80;;;;;;4972878;28;20904;-75
2022/06/26 10:26:53;;;;;;;1.50;0.80;;;27.10;75.10;;;;;;4966403;28;21063;-76
2022/06/26 10:29:20;;;;;;;1.47;0.80;;;27.10;75.40;;;;;;4970613;28;20472;-76
2022/06/26 10:31:49;;;;;;;1.43;0.80;;;27.10;75.70;;;;;;4961446;28;20493;-76
2022/06/26 10:34:41;;;;;;;1.50;0.90;;;27.10;75.90;;;;;;4966713;28;20473;-77
2022/06/26 10:37:13;;;;;;;1.47;0.80;;;27.20;74.80;;;;;;4955641;28;20489;-76
2022/06/26 10:39:45;;;;;;;1.50;0.90;;;27.30;75.30;;;;;;4966823;28;20568;-74
2022/06/26 10:45:09;;;;;;;1.50;0.80;;;27.00;74.50;;;;;;4966472;28;20584;-76
2022/06/26 10:47:45;;;;;;;1.50;0.80;;;27.00;74.70;;;;;;4963952;28;20489;-76
2022/06/26 10:50:30;;;;;;;1.50;0.80;;;27.00;75.00;;;;;;4965972;28;20531;-76
2022/06/26 10:53:15;;;;;;;1.47;0.80;;;27.00;74.50;;;;;;4964742;28;20466;-76
2022/06/26 10:55:45;;;;;;;1.47;0.80;;;27.00;75.20;;;;;;4964119;28;20476;-75
2022/06/26 10:58:20;;;;;;;1.50;0.80;;;27.10;74.40;;;;;;4954836;28;20489;-75
2022/06/26 11:00:47;;;;;;;1.47;0.80;;;27.10;75.10;;;;;;4963733;28;20976;-76
2022/06/26 11:03:16;;;;;;;1.40;0.80;;;27.10;73.60;;;;;;4964493;28;20464;-77
2022/06/26 11:05:54;;;;;;;1.47;0.80;;;27.10;74.40;;;;;;4966702;28;20954;-77
2022/06/26 11:08:26;;;;;;;1.47;0.80;;;27.00;75.40;;;;;;4967119;28;20488;-78
2022/06/26 11:10:59;;;;;;;1.47;0.80;;;27.00;73.80;;;;;;4965705;28;20505;-78
2022/06/26 11:13:27;;;;;;;1.47;0.90;;;27.00;73.30;;;;;;4969182;28;20862;-77
2022/06/26 11:15:54;;;;;;;1.50;0.80;;;27.00;72.00;;;;;;4959606;28;20469;-76
2022/06/26 11:18:21;;;;;;;1.47;0.80;;;26.90;73.40;;;;;;4973501;28;20533;-77
2022/06/26 11:20:54;;;;;;;1.47;0.90;;;26.80;72.90;;;;;;4966224;28;20585;-78
2022/06/26 11:23:24;;;;;;;1.50;0.90;;;26.70;73.80;;;;;;4967879;28;20570;-78
2022/06/26 11:25:56;;;;;;;1.43;0.80;;;26.50;74.40;;;;;;4953578;28;21017;-77
2022/06/26 11:28:28;;;;;;;1.43;0.80;;;26.30;74.60;;;;;;4971756;28;20897;-80
2022/06/26 11:30:56;;;;;;;1.47;0.90;;;26.30;75.40;;;;;;4966599;28;20488;-75
2022/06/26 11:33:25;;;;;;;1.50;0.90;;;26.30;74.90;;;;;;4970976;28;21251;-77
2022/06/26 11:35:53;;;;;;;1.47;0.90;;;26.30;75.40;;;;;;4965235;28;21296;-78
2022/06/26 11:38:21;;;;;;;1.47;0.90;;;26.20;76.10;;;;;;4979717;28;20539;-78
2022/06/26 11:40:50;;;;;;;1.43;0.90;;;26.00;76.80;;;;;;4973634;28;20485;-78
2022/06/26 11:43:20;;;;;;;1.43;0.90;;;25.90;76.80;;;;;;4970057;28;20595;-76
2022/06/26 11:45:47;;;;;;;1.43;0.90;;;25.70;77.30;;;;;;4964127;28;20770;-78
2022/06/26 11:48:17;;;;;;;1.50;0.90;;;25.70;77.60;;;;;;4984267;28;20998;-77
2022/06/26 11:50:47;;;;;;;1.43;0.80;;;25.60;78.00;;;;;;4973519;28;21263;-77
2022/06/26 11:53:22;;;;;;;1.47;0.87;;;25.50;76.60;;;;;;4966773;28;20493;-76
2022/06/26 11:55:51;;;;;;;1.50;0.90;;;25.30;79.30;;;;;;4963243;28;20491;-75
2022/06/26 11:58:23;;;;;;;1.43;0.90;;;25.10;81.10;;;;;;4987689;28;20469;-75
2022/06/26 12:00:50;;;;;;;1.43;0.90;;;24.90;84.20;;;;;;4964147;28;20516;-75
2022/06/26 12:03:18;;;;;;;1.50;0.90;;;24.70;83.70;;;;;;4965750;28;20536;-74
2022/06/26 12:05:46;;;;;;;1.50;0.90;;;24.60;84.00;;;;;;4969752;28;20472;-75
2022/06/26 12:08:19;;;;;;;1.50;0.90;;;24.30;83.70;;;;;;4969052;28;20462;-76
2022/06/26 12:10:51;;;;;;;1.47;0.90;;;24.20;84.10;;;;;;4967964;28;20497;-77
2022/06/26 12:13:25;;;;;;;1.50;0.90;;;24.10;83.50;;;;;;4976426;28;20547;-75
2022/06/26 12:15:52;;;;;;;1.50;0.90;;;24.00;84.40;;;;;;4961823;28;20857;-74
2022/06/26 12:18:20;;;;;;;1.50;0.90;;;23.90;85.10;;;;;;4964898;28;20480;-75
2022/06/26 12:20:51;;;;;;;1.50;0.90;;;23.80;84.80;;;;;;4966705;28;20513;-77
2022/06/26 12:23:19;;;;;;;1.43;0.90;;;23.70;85.70;;;;;;4966508;28;20506;-75
2022/06/26 12:25:49;;;;;;;1.50;0.90;;;23.70;85.40;;;;;;4965749;28;21023;-74
2022/06/26 12:28:25;;;;;;;1.50;0.90;;;23.70;86.80;;;;;;4967486;28;20482;-73
2022/06/26 12:30:52;;;;;;;1.47;0.90;;;23.70;87.20;;;;;;4966915;28;20985;-79
2022/06/26 12:33:19;;;;;;;1.47;0.90;;;23.70;86.20;;;;;;4969583;28;20529;-75
2022/06/26 12:35:47;;;;;;;1.47;0.90;;;23.60;87.30;;;;;;4963924;28;20470;-76
2022/06/26 12:38:21;;;;;;;1.50;0.90;;;23.50;88.10;;;;;;4977235;28;20510;-74
2022/06/26 12:40:48;;;;;;;1.43;0.90;;;23.50;87.40;;;;;;4962286;28;20509;-76
2022/06/26 12:43:17;;;;;;;1.50;0.90;;;23.40;88.10;;;;;;4984227;28;20484;-76
2022/06/26 12:45:45;;;;;;;1.50;0.90;;;23.30;89.10;;;;;;4970593;28;20837;-76
2022/06/26 12:48:12;;;;;;;1.47;0.80;;;23.20;89.50;;;;;;4956891;28;21021;-76
2022/06/26 12:50:40;;;;;;;1.50;0.90;;;23.20;90.30;;;;;;4968990;28;20500;-79
2022/06/26 12:53:08;;;;;;;2.43;2.03;;;23.20;90.80;;;;;;4969381;28;20557;-79
2022/06/26 12:55:36;;;;;;;1.50;0.90;;;23.20;90.60;;;;;;4974129;28;20662;-77
2022/06/26 12:58:03;;;;;;;1.43;0.90;;;23.10;90.70;;;;;;4973996;28;21033;-80
2022/06/26 13:00:30;;;;;;;1.47;0.90;;;23.00;91.40;;;;;;4967795;28;20482;-77
2022/06/26 13:02:59;;;;;;;1.50;0.90;;;23.00;92.80;;;;;;4965335;28;20521;-78
2022/06/26 13:05:26;;;;;;;1.50;0.90;;;23.00;90.70;;;;;;4969176;28;20501;-80
2022/06/26 13:07:53;;;;;;;1.47;0.90;;;23.00;90.90;;;;;;4970045;28;21049;-80
2022/06/26 13:10:20;;;;;;;1.43;0.90;;;23.00;91.60;;;;;;4970422;28;20514;-77
2022/06/26 13:12:47;;;;;;;1.47;0.90;;;23.00;92.90;;;;;;4970894;28;20525;-78
2022/06/26 13:15:14;;;;;;;1.47;0.90;;;23.00;93.10;;;;;;4969804;28;20966;-79
2022/06/26 13:17:41;;;;;;;1.47;0.90;;;23.10;93.10;;;;;;4969108;28;20998;-79
2022/06/26 13:20:11;;;;;;;1.47;0.90;;;23.20;92.80;;;;;;4970085;28;20481;-79